createdAt,value
2023-05-24T00:04:01.193Z,3.17
2023-05-24T00:09:05.513Z,3.25
2023-05-24T00:14:07.552Z,3.10
2023-05-24T00:19:11.450Z,3.63
2023-05-24T00:24:14.445Z,3.63
2023-05-24T00:29:16.576Z,3.08
2023-05-24T00:34:18.742Z,3.28
2023-05-24T00:39:21.198Z,3.63
2023-05-24T00:44:23.458Z,3.42
2023-05-24T00:49:26.373Z,3.95
2023-05-24T00:54:29.371Z,3.72
2023-05-24T00:59:32.820Z,3.38
2023-05-24T01:04:35.716Z,3.45
2023-05-24T01:09:49.354Z,3.47
2023-05-24T01:15:19.502Z,3.35
2023-05-24T01:20:24.107Z,3.43
2023-05-24T01:25:33.756Z,3.97
2023-05-24T01:30:36.965Z,3.30
2023-05-24T01:35:42.644Z,3.45
2023-05-24T01:40:49.902Z,3.35
2023-05-24T01:46:19.732Z,3.50
2023-05-24T01:51:24.602Z,3.50
2023-05-24T01:56:28.054Z,3.70
2023-05-24T02:01:31.906Z,3.53
2023-05-24T02:06:34.068Z,3.72
2023-05-24T02:11:36.264Z,3.58
2023-05-24T02:16:42.581Z,3.15
2023-05-24T02:21:45.192Z,4.03
2023-05-24T02:26:47.954Z,3.42
2023-05-24T02:31:54.912Z,3.47
2023-05-24T02:36:57.076Z,3.80
2023-05-24T02:41:59.216Z,4.28
2023-05-24T02:47:01.307Z,3.78
2023-05-24T02:52:03.515Z,3.78
2023-05-24T02:57:08.677Z,3.90
2023-05-24T03:02:13.716Z,3.72
2023-05-24T03:07:16.338Z,4.10
2023-05-24T03:12:18.410Z,3.80
2023-05-24T03:17:20.558Z,3.38
2023-05-24T03:22:22.773Z,3.70
2023-05-24T03:27:25.937Z,4.07
2023-05-24T03:32:28.187Z,3.67
2023-05-24T03:37:30.432Z,3.97
2023-05-24T03:42:32.443Z,3.47
2023-05-24T03:47:35.041Z,3.50
2023-05-24T03:52:38.158Z,3.55
2023-05-24T03:57:41.650Z,3.40
2023-05-24T04:02:43.727Z,3.77
2023-05-24T04:07:46.301Z,3.85
2023-05-24T04:12:48.410Z,3.67
2023-05-24T04:17:55.022Z,4.00
2023-05-24T04:22:57.609Z,3.80
2023-05-24T04:28:02.388Z,3.90
2023-05-24T04:33:06.216Z,3.53
2023-05-24T04:38:08.749Z,3.72
2023-05-24T04:43:11.806Z,4.07
2023-05-24T04:48:13.938Z,3.90
2023-05-24T04:53:16.109Z,3.50
2023-05-24T04:58:18.628Z,4.45
2023-05-24T05:03:20.952Z,4.47
2023-05-24T05:08:23.117Z,4.45
2023-05-24T05:13:25.253Z,5.22
2023-05-24T05:18:27.332Z,5.18
2023-05-24T05:23:30.121Z,5.80
2023-05-24T05:28:32.213Z,5.28
2023-05-24T05:33:34.444Z,4.97
2023-05-24T05:38:36.570Z,5.10
2023-05-24T05:43:39.010Z,4.22
2023-05-24T05:48:41.259Z,4.85
2023-05-24T05:53:43.321Z,5.00
2023-05-24T05:58:45.351Z,4.88
2023-05-24T06:03:47.812Z,5.40
2023-05-24T06:08:50.046Z,5.50
2023-05-24T06:13:52.315Z,6.28
2023-05-24T06:19:05.573Z,5.20
2023-05-24T06:24:09.747Z,5.28
2023-05-24T06:29:12.307Z,5.70
2023-05-24T06:34:18.903Z,5.40
2023-05-24T06:39:21.344Z,5.35
2023-05-24T06:44:25.317Z,5.55
2023-05-24T06:49:28.120Z,5.10
2023-05-24T06:54:30.717Z,4.50
2023-05-24T06:59:32.795Z,4.80
2023-05-24T07:04:34.927Z,3.80
2023-05-24T07:09:37.066Z,3.75
2023-05-24T07:14:39.143Z,4.47
2023-05-24T07:19:41.795Z,4.68
2023-05-24T07:24:43.949Z,4.13
2023-05-24T07:29:50.304Z,4.15
2023-05-24T07:34:52.383Z,3.58
2023-05-24T07:39:54.561Z,3.60
2023-05-24T07:44:56.988Z,3.97
2023-05-24T07:49:59.066Z,3.42
2023-05-24T07:55:01.165Z,4.28
2023-05-24T08:00:10.439Z,4.53
2023-05-24T08:05:14.324Z,4.00
2023-05-24T08:10:16.657Z,4.82
2023-05-24T08:15:18.759Z,4.68
2023-05-24T08:20:20.878Z,4.43
2023-05-24T08:25:23.127Z,4.53
2023-05-24T08:30:25.222Z,4.32
2023-05-24T08:35:27.308Z,5.22
2023-05-24T08:40:29.353Z,4.22
2023-05-24T08:45:35.464Z,4.78
2023-05-24T08:50:37.756Z,5.00
2023-05-24T08:55:40.477Z,4.72
2023-05-24T09:00:42.678Z,4.53
2023-05-24T09:05:45.575Z,4.88
2023-05-24T09:10:54.595Z,4.80
2023-05-24T09:15:59.995Z,4.15
2023-05-24T09:21:02.228Z,4.47
2023-05-24T09:26:08.471Z,4.55
2023-05-24T09:31:10.608Z,4.68
2023-05-24T09:36:17.008Z,5.10
2023-05-24T09:41:20.465Z,4.60
2023-05-24T09:46:23.047Z,5.88
2023-05-24T09:51:26.974Z,4.90
2023-05-24T09:56:30.751Z,5.13
2023-05-24T10:01:33.905Z,5.03
2023-05-24T10:06:39.293Z,3.80
2023-05-24T10:11:41.606Z,3.83
2023-05-24T10:16:44.305Z,4.63
2023-05-24T10:21:47.796Z,3.90
2023-05-24T10:26:52.329Z,4.72
2023-05-24T10:31:55.241Z,3.92
2023-05-24T10:36:59.036Z,5.03
2023-05-24T10:42:09.413Z,4.40
2023-05-24T10:47:13.881Z,4.53
2023-05-24T10:52:15.961Z,4.45
2023-05-24T10:57:22.951Z,4.97
2023-05-24T11:02:28.294Z,4.15
2023-05-24T11:07:33.289Z,4.55
2023-05-24T11:12:38.839Z,4.43
2023-05-24T11:18:14.816Z,3.92
2023-05-24T11:23:17.812Z,3.83
2023-05-24T11:28:20.907Z,4.45
2023-05-24T11:33:24.321Z,3.92
2023-05-24T11:38:27.509Z,2.97
2023-05-24T11:43:30.907Z,3.92
2023-05-24T11:48:33.101Z,3.83
2023-05-24T11:53:35.180Z,2.70
2023-05-24T11:58:48.271Z,3.25
2023-05-24T12:03:53.228Z,3.03
2023-05-24T12:08:55.695Z,4.22
2023-05-24T12:13:59.256Z,3.28
2023-05-24T12:19:06.975Z,3.40
2023-05-24T12:24:13.919Z,3.60
2023-05-24T12:29:16.654Z,3.55
2023-05-24T12:34:19.715Z,3.30
2023-05-24T12:39:31.796Z,3.67
2023-05-24T12:44:38.232Z,4.03
2023-05-24T12:49:40.384Z,3.13
2023-05-24T12:54:42.459Z,3.30
2023-05-24T12:59:44.560Z,3.40
2023-05-24T13:04:46.707Z,3.28
2023-05-24T13:09:49.313Z,3.72
2023-05-24T13:14:53.177Z,3.70
2023-05-24T13:19:57.270Z,3.22
2023-05-24T13:24:59.536Z,2.83
2023-05-24T13:30:02.253Z,4.00
2023-05-24T13:35:08.121Z,3.05
2023-05-24T13:40:11.130Z,3.50
2023-05-24T13:45:13.404Z,2.85
2023-05-24T13:50:15.630Z,3.15
2023-05-24T13:55:18.552Z,2.92
2023-05-24T14:00:21.584Z,3.67
2023-05-24T14:05:28.472Z,2.72
2023-05-24T14:10:30.809Z,3.28
2023-05-24T14:15:33.830Z,2.80
2023-05-24T14:20:37.777Z,2.63
2023-05-24T14:25:42.296Z,3.00
2023-05-24T14:30:44.664Z,3.20
2023-05-24T14:35:46.920Z,3.00
2023-05-24T14:40:49.442Z,2.97
2023-05-24T14:45:51.977Z,3.05
2023-05-24T14:50:54.164Z,2.60
2023-05-24T14:55:56.245Z,2.60
2023-05-24T15:00:58.466Z,2.85
2023-05-24T15:06:01.085Z,2.67
2023-05-24T15:11:03.458Z,2.78
2023-05-24T15:16:05.752Z,2.40
2023-05-24T15:21:07.821Z,2.22
2023-05-24T15:26:09.891Z,2.70
2023-05-24T15:31:12.023Z,2.25
2023-05-24T15:36:16.737Z,2.50
2023-05-24T15:41:18.826Z,1.63
2023-05-24T15:46:21.853Z,1.92
2023-05-24T15:52:01.921Z,2.50
2023-05-24T15:56:46.104Z,2.08
2023-05-24T16:01:48.407Z,1.80
2023-05-24T16:06:50.597Z,2.53
2023-05-24T16:11:52.706Z,2.17
2023-05-24T16:16:56.050Z,2.15
2023-05-24T16:22:00.118Z,2.28
2023-05-24T16:27:02.249Z,2.67
2023-05-24T16:32:04.600Z,2.17
2023-05-24T16:37:07.074Z,2.40
2023-05-24T16:42:09.399Z,2.45
2023-05-24T16:47:11.736Z,2.22
2023-05-24T16:52:14.260Z,2.45
2023-05-24T16:57:17.162Z,2.13
2023-05-24T17:02:21.719Z,1.83
2023-05-24T17:07:23.864Z,2.00
2023-05-24T17:12:25.958Z,2.15
2023-05-24T17:17:28.047Z,2.25
2023-05-24T17:22:30.413Z,2.05
2023-05-24T17:27:32.514Z,2.08
2023-05-24T17:32:34.690Z,2.08
2023-05-24T17:37:37.249Z,2.15
2023-05-24T17:42:40.154Z,1.90
2023-05-24T17:47:42.400Z,1.70
2023-05-24T17:52:44.654Z,1.58
2023-05-24T17:57:46.818Z,1.92
2023-05-24T18:02:48.972Z,1.77
2023-05-24T18:07:51.451Z,1.60
2023-05-24T18:12:53.625Z,1.98
2023-05-24T18:17:56.496Z,2.00
2023-05-24T18:22:59.223Z,1.77
2023-05-24T18:28:01.995Z,1.80
2023-05-24T18:33:08.056Z,2.03
2023-05-24T18:38:10.919Z,2.25
2023-05-24T18:43:13.172Z,2.10
2023-05-24T18:48:15.458Z,2.53
2023-05-24T18:53:17.871Z,2.72
2023-05-24T18:58:20.132Z,2.13
2023-05-24T19:03:22.577Z,2.60
2023-05-24T19:08:24.804Z,13.85
2023-05-24T19:13:27.511Z,6.07
2023-05-24T19:18:29.741Z,3.75
2023-05-24T19:23:32.082Z,3.47
2023-05-24T19:28:37.725Z,4.07
2023-05-24T19:33:48.724Z,2.90
2023-05-24T19:39:01.234Z,3.47
2023-05-24T19:44:03.495Z,2.95
2023-05-24T19:49:05.799Z,2.75
2023-05-24T19:54:11.159Z,3.40
2023-05-24T19:59:13.333Z,2.55
2023-05-24T20:04:15.600Z,3.13
2023-05-24T20:09:18.839Z,3.30
2023-05-24T20:14:21.220Z,2.88
2023-05-24T20:19:23.643Z,3.15
2023-05-24T20:24:25.692Z,2.70
2023-05-24T20:29:27.867Z,3.05
2023-05-24T20:34:30.051Z,4.05
2023-05-24T20:39:32.180Z,3.30
2023-05-24T20:44:34.274Z,3.03
2023-05-24T20:49:36.454Z,3.20
2023-05-24T20:54:38.540Z,2.90
2023-05-24T20:59:40.937Z,3.45
2023-05-24T21:04:42.982Z,3.10
2023-05-24T21:09:45.298Z,3.22
2023-05-24T21:14:47.345Z,2.72
2023-05-24T21:19:49.598Z,3.50
2023-05-24T21:24:51.651Z,3.08
2023-05-24T21:29:53.891Z,3.45
2023-05-24T21:34:56.155Z,3.35
2023-05-24T21:39:58.257Z,3.08
2023-05-24T21:45:00.500Z,3.35
2023-05-24T21:50:02.734Z,3.08
2023-05-24T21:55:05.516Z,3.40
2023-05-24T22:00:08.858Z,2.70
2023-05-24T22:05:11.145Z,3.35
2023-05-24T22:10:13.354Z,3.58
2023-05-24T22:15:15.506Z,3.40
2023-05-24T22:20:19.997Z,3.45
2023-05-24T22:25:22.118Z,2.95
2023-05-24T22:30:24.295Z,3.40
2023-05-24T22:35:26.445Z,3.70
2023-05-24T22:40:28.469Z,3.63
2023-05-24T22:45:30.552Z,3.60
2023-05-24T22:50:32.625Z,3.67
2023-05-24T22:55:34.721Z,3.60
2023-05-24T23:00:36.995Z,3.30
2023-05-24T23:05:41.028Z,3.60
2023-05-24T23:10:46.724Z,3.67
2023-05-24T23:15:48.735Z,3.70
2023-05-24T23:20:54.176Z,3.50
2023-05-24T23:25:56.331Z,3.55
2023-05-24T23:30:58.801Z,3.70
2023-05-24T23:36:01.064Z,3.70
2023-05-24T23:41:03.161Z,3.70
2023-05-24T23:46:06.394Z,3.72
2023-05-24T23:51:10.092Z,4.35
2023-05-24T23:56:12.130Z,4.07
